Time;durP1;ratioP1;P1;durP2;ratioP2;P2;SDS_P1;SDS_P2;PMS_P1;PMS_P2;Temp;Humidity;BMP_temperature;BMP_pressure;BME280_temperature;BME280_humidity;BME280_pressure;Samples;Min_cycle;Max_cycle;Signal;HPM_P1;HPM_P2
2022/01/20 00:01:50;;;;;;;197.52;160.60;;;;;;;15.03;31.81;94194.31;4996512;28;20044;-65
2022/01/20 00:09:44;;;;;;;197.30;160.57;;;;;;;14.98;31.96;94197.53;5005591;28;20111;-67
2022/01/20 00:25:55;;;;;;;190.15;156.35;;;;;;;14.97;31.96;94197.97;5011602;28;20053;-67
2022/01/20 00:28:27;;;;;;;194.50;157.80;;;;;;;14.97;32.02;94200.66;5010318;28;20508;-67
2022/01/20 00:31:04;;;;;;;196.10;161.30;;;;;;;14.99;31.93;94198.28;5009884;28;20061;-66
2022/01/20 00:34:11;;;;;;;200.77;165.25;;;;;;;15.00;31.89;94205.94;5009547;28;20042;-66
2022/01/20 00:39:06;;;;;;;193.70;158.10;;;;;;;14.99;31.74;94206.38;5011205;28;20042;-67
2022/01/20 00:41:31;;;;;;;198.07;162.13;;;;;;;14.99;31.95;94200.97;5007765;28;20068;-68
2022/01/20 00:43:57;;;;;;;199.90;163.95;;;;;;;14.99;32.01;94198.28;5006390;28;20045;-67
2022/01/20 00:46:23;;;;;;;201.48;165.38;;;;;;;14.99;31.88;94195.59;5010042;28;20038;-66
2022/01/20 00:48:48;;;;;;;196.00;160.00;;;;;;;15.00;32.03;94197.88;5008310;28;20076;-66
2022/01/20 00:51:14;;;;;;;198.20;162.55;;;;;;;14.99;31.79;94190.97;5010316;28;20045;-66
2022/01/20 00:53:44;;;;;;;189.18;154.45;;;;;;;14.99;31.87;94188.28;4995390;28;21077;-66
2022/01/20 00:56:12;;;;;;;190.10;154.30;;;;;;;14.98;32.08;94189.47;5011452;28;20119;-66
2022/01/20 00:58:38;;;;;;;195.48;160.15;;;;;;;14.98;32.16;94194.84;5007883;28;20045;-67
2022/01/20 01:01:04;;;;;;;192.95;158.18;;;;;;;14.99;32.07;94190.97;5010448;28;20595;-67
2022/01/20 01:03:30;;;;;;;199.60;163.85;;;;;;;14.99;31.93;94193.66;5005807;28;20196;-66
2022/01/20 01:08:59;;;;;;;195.80;159.15;;;;;;;14.98;31.99;94184.06;4956530;28;20047;-66
2022/01/20 01:11:25;;;;;;;199.88;163.48;;;;;;;15.00;31.98;94179.00;4953764;28;20065;-67
2022/01/20 01:13:52;;;;;;;187.43;154.52;;;;;;;15.00;32.05;94176.31;4979309;28;20057;-65
2022/01/20 01:16:21;;;;;;;194.32;158.13;;;;;;;15.01;32.06;94182.47;5008750;28;20477;-66
2022/01/20 01:21:43;;;;;;;193.38;159.05;;;;;;;14.99;32.17;94179.44;5010784;28;20049;-66
2022/01/20 01:24:09;;;;;;;197.05;161.07;;;;;;;15.00;32.13;94167.47;5009982;28;20564;-66
2022/01/20 01:26:35;;;;;;;195.13;159.70;;;;;;;15.00;32.42;94170.19;5007993;28;20080;-65
2022/01/20 01:29:05;;;;;;;193.75;159.90;;;;;;;15.00;32.46;94172.88;5008610;28;21941;-67
2022/01/20 01:31:37;;;;;;;204.43;168.10;;;;;;;15.00;32.59;94181.72;5008727;28;20059;-67
2022/01/20 01:34:10;;;;;;;198.02;162.43;;;;;;;15.01;32.41;94175.13;5010051;28;20095;-67
2022/01/20 01:39:31;;;;;;;196.20;158.50;;;;;;;14.98;32.28;94186.00;5001007;28;20057;-67
2022/01/20 01:41:58;;;;;;;198.15;162.10;;;;;;;14.97;32.24;94190.66;5008768;28;20111;-67
2022/01/20 01:44:27;;;;;;;191.25;156.70;;;;;;;14.97;32.24;94182.56;5008349;28;20147;-66
2022/01/20 01:46:54;;;;;;;193.68;157.73;;;;;;;14.98;32.20;94183.31;5008044;28;20054;-66
2022/01/20 01:49:20;;;;;;;197.38;161.95;;;;;;;14.97;32.38;94179.13;5010990;28;20406;-66
2022/01/20 01:51:47;;;;;;;194.20;158.75;;;;;;;14.96;31.93;94172.97;5011376;28;20042;-66
2022/01/20 01:54:15;;;;;;;190.63;155.20;;;;;;;14.95;32.13;94174.16;5008507;28;20046;-66
2022/01/20 01:56:41;;;;;;;192.43;157.32;;;;;;;14.95;32.09;94176.84;5010166;28;20491;-66
2022/01/20 01:59:07;;;;;;;190.30;157.38;;;;;;;14.95;32.08;94171.47;5004194;28;20058;-67
2022/01/20 02:01:36;;;;;;;191.70;157.73;;;;;;;14.93;32.05;94178.50;5006372;28;20683;-67
2022/01/20 02:04:12;;;;;;;193.98;156.88;;;;;;;14.94;32.14;94174.63;5005585;28;20785;-66
2022/01/20 02:19:55;;;;;;;193.10;154.38;;;;;;;14.92;32.17;94155.44;5009524;28;20069;-67
2022/01/20 02:22:21;;;;;;;194.52;157.82;;;;;;;14.93;31.95;94162.34;5007534;28;20050;-67
2022/01/20 02:24:46;;;;;;;191.93;156.38;;;;;;;14.91;32.02;94157.38;5005378;28;20068;-66
2022/01/20 02:27:12;;;;;;;198.98;161.80;;;;;;;14.91;32.16;94146.59;5006556;28;20655;-67
2022/01/20 02:29:38;;;;;;;202.80;165.20;;;;;;;14.92;31.83;94126.56;5006679;28;20045;-67
2022/01/20 02:32:04;;;;;;;193.30;157.77;;;;;;;14.86;31.75;94136.38;5009942;28;20091;-66
2022/01/20 02:34:31;;;;;;;198.23;161.57;;;;;;;14.89;32.08;94140.16;5004111;28;20060;-66
2022/01/20 02:37:00;;;;;;;191.23;156.82;;;;;;;14.90;31.97;94138.97;5008728;28;20081;-66
2022/01/20 02:44:51;;;;;;;200.75;162.10;;;;;;;14.91;32.03;94137.78;5006710;28;20576;-66
2022/01/20 02:47:19;;;;;;;193.68;157.13;;;;;;;14.90;31.98;94141.66;5009362;28;20049;-66
2022/01/20 02:49:45;;;;;;;193.73;158.45;;;;;;;14.90;31.91;94138.97;4996322;28;20045;-67
2022/01/20 02:52:12;;;;;;;199.35;161.77;;;;;;;14.88;31.94;94133.25;5010623;28;20065;-67
2022/01/20 02:54:37;;;;;;;193.70;156.63;;;;;;;14.89;31.99;94134.75;5006410;28;20624;-66
2022/01/20 02:57:05;;;;;;;198.43;161.82;;;;;;;14.89;31.67;94145.53;5005839;28;20129;-67
2022/01/20 02:59:32;;;;;;;193.10;157.07;;;;;;;14.89;31.83;94143.59;5007887;28;20041;-67
2022/01/20 03:01:57;;;;;;;190.93;156.68;;;;;;;14.86;32.07;94135.63;5005895;28;20045;-66
2022/01/20 03:04:26;;;;;;;194.95;159.38;;;;;;;14.82;32.03;94123.00;5005775;28;20041;-67
2022/01/20 03:06:51;;;;;;;194.63;158.35;;;;;;;14.85;31.91;94109.88;5007167;28;20400;-67
2022/01/20 03:09:17;;;;;;;192.80;156.57;;;;;;;14.86;32.05;94114.84;5006050;28;20054;-67
2022/01/20 03:11:42;;;;;;;195.15;159.68;;;;;;;14.88;31.96;94122.47;5003370;28;20036;-66
2022/01/20 03:14:08;;;;;;;191.73;157.02;;;;;;;14.87;32.01;94113.66;5009398;28;20052;-65
2022/01/20 03:16:33;;;;;;;194.73;158.15;;;;;;;14.86;31.75;94108.69;5012028;28;20053;-65
2022/01/20 03:18:59;;;;;;;191.07;154.82;;;;;;;14.88;31.99;94112.47;5009589;28;20060;-66
2022/01/20 03:21:24;;;;;;;195.57;160.15;;;;;;;14.88;32.23;94117.09;5009785;28;20076;-66
2022/01/20 03:23:50;;;;;;;193.80;157.02;;;;;;;14.88;32.24;94115.16;5010734;28;20045;-67
2022/01/20 03:26:15;;;;;;;192.85;155.00;;;;;;;14.87;32.12;94121.72;5011303;28;20046;-67
2022/01/20 03:28:41;;;;;;;192.13;153.98;;;;;;;14.85;31.95;94115.25;5010308;28;20064;-67
2022/01/20 03:31:06;;;;;;;193.70;157.80;;;;;;;14.84;31.93;94109.13;5010183;28;20046;-65
2022/01/20 03:33:32;;;;;;;197.90;161.45;;;;;;;14.81;32.06;94118.06;5009894;28;20128;-67
2022/01/20 03:35:58;;;;;;;202.63;163.57;;;;;;;14.81;32.23;94110.72;5010396;28;20042;-67
2022/01/20 03:38:23;;;;;;;195.15;157.55;;;;;;;14.81;32.11;94123.44;5006959;28;20053;-66
2022/01/20 03:40:50;;;;;;;188.75;154.07;;;;;;;14.78;31.98;94124.31;5012997;28;20085;-65
2022/01/20 03:43:16;;;;;;;201.25;163.27;;;;;;;14.79;32.17;94125.81;5008217;28;20049;-67
2022/01/20 03:45:43;;;;;;;192.40;155.90;;;;;;;14.80;32.08;94128.06;5009327;28;20050;-66
2022/01/20 03:48:11;;;;;;;192.45;156.68;;;;;;;14.82;32.07;94130.34;5010089;28;20805;-65
2022/01/20 03:53:23;;;;;;;196.48;158.07;;;;;;;14.82;32.22;94133.78;5010168;28;20053;-66
2022/01/20 03:55:49;;;;;;;201.68;162.32;;;;;;;14.79;31.96;94126.56;5007168;28;20111;-65
2022/01/20 03:58:14;;;;;;;195.40;158.20;;;;;;;14.80;32.22;94130.75;5006222;28;20067;-65
2022/01/20 04:00:40;;;;;;;203.95;163.90;;;;;;;14.82;32.09;94133.03;5006287;28;20529;-66
2022/01/20 04:03:06;;;;;;;195.02;157.95;;;;;;;14.82;32.24;94127.66;4998093;28;20117;-64
2022/01/20 04:05:31;;;;;;;190.93;154.02;;;;;;;14.80;32.25;94127.31;5011296;28;20447;-64
2022/01/20 04:07:57;;;;;;;201.35;163.68;;;;;;;14.81;32.13;94134.22;5004843;28;20046;-66
2022/01/20 04:10:22;;;;;;;196.75;160.57;;;;;;;14.80;32.35;94124.63;5007868;28;20126;-66
2022/01/20 04:12:48;;;;;;;196.73;160.70;;;;;;;14.82;32.26;94135.72;5004514;28;20054;-68
2022/01/20 04:15:16;;;;;;;193.80;157.20;;;;;;;14.82;32.32;94135.72;5004924;28;20050;-66
2022/01/20 04:17:44;;;;;;;203.70;164.70;;;;;;;14.81;32.40;94134.22;5009141;28;20041;-68
2022/01/20 04:20:10;;;;;;;193.50;156.85;;;;;;;14.82;32.39;94131.09;5010548;28;20046;-67
2022/01/20 04:22:37;;;;;;;191.73;155.15;;;;;;;14.85;32.25;94142.94;5013309;28;20882;-67
2022/01/20 04:25:04;;;;;;;190.32;154.30;;;;;;;14.86;32.44;94135.63;5013915;28;20053;-67
2022/01/20 04:27:29;;;;;;;189.98;155.30;;;;;;;14.83;32.62;94142.63;5009026;28;20087;-67
2022/01/20 04:29:55;;;;;;;197.48;159.95;;;;;;;14.83;32.52;94137.22;5009385;28;20050;-69
2022/01/20 04:32:21;;;;;;;196.68;159.02;;;;;;;14.83;32.19;94140.69;4996695;28;20108;-64
2022/01/20 04:34:46;;;;;;;193.45;157.23;;;;;;;14.82;32.54;94138.41;5006303;28;20517;-64
2022/01/20 04:37:13;;;;;;;190.77;156.68;;;;;;;14.83;32.54;94140.69;5008640;28;21167;-64
2022/01/20 04:39:44;;;;;;;191.77;155.90;;;;;;;14.83;32.48;94139.91;5010772;28;20038;-64
2022/01/20 04:42:10;;;;;;;210.48;168.93;;;;;;;14.84;32.42;94138.75;5009005;28;20145;-67
2022/01/20 04:44:46;;;;;;;195.07;158.27;;;;;;;14.81;32.41;94145.72;5010961;28;20041;-67
2022/01/20 04:57:52;;;;;;;198.57;161.63;;;;;;;14.83;32.53;94145.31;5005261;28;20045;-67
2022/01/20 05:00:18;;;;;;;204.65;163.93;;;;;;;14.85;32.46;94152.97;5006399;28;20516;-67
2022/01/20 05:02:43;;;;;;;193.68;157.68;;;;;;;14.84;32.56;94149.50;5009377;28;20080;-67
2022/01/20 05:05:09;;;;;;;209.48;172.02;;;;;;;14.87;32.44;94153.28;5007644;28;20049;-67
2022/01/20 05:07:35;;;;;;;202.52;165.50;;;;;;;14.84;32.50;94146.81;5001376;28;20514;-67
2022/01/20 05:10:05;;;;;;;209.02;171.38;;;;;;;14.82;32.41;94147.25;5006603;28;20037;-68
2022/01/20 05:13:04;;;;;;;194.23;157.43;;;;;;;14.82;32.35;94152.63;5008604;28;20045;-67
2022/01/20 05:15:20;;;;;;;212.50;170.50;;;;;;;14.86;32.59;94159.84;5003832;28;20053;-65
2022/01/20 05:17:46;;;;;;;194.95;158.27;;;;;;;14.81;32.42;94151.13;5007822;28;20144;-66
2022/01/20 05:20:12;;;;;;;198.75;161.90;;;;;;;14.86;32.52;94154.47;5006056;28;20137;-66
2022/01/20 05:22:38;;;;;;;193.23;157.30;;;;;;;14.85;32.60;94156.41;5009686;28;20064;-65
2022/01/20 05:25:04;;;;;;;191.00;157.15;;;;;;;14.83;32.48;94154.13;5007473;28;20145;-65
2022/01/20 05:27:30;;;;;;;193.85;159.93;;;;;;;14.85;32.62;94163.72;5008860;28;20516;-65
2022/01/20 05:29:57;;;;;;;189.30;154.35;;;;;;;14.86;32.61;94155.22;5007343;28;20505;-66
2022/01/20 05:32:23;;;;;;;195.13;158.07;;;;;;;14.86;32.53;94147.13;5008204;28;20041;-69
2022/01/20 05:34:48;;;;;;;194.15;157.27;;;;;;;14.87;32.53;94143.25;5007987;28;20124;-68
2022/01/20 05:37:14;;;;;;;196.40;160.82;;;;;;;14.90;32.52;94147.78;5008491;28;20089;-70
2022/01/20 05:39:40;;;;;;;192.57;158.05;;;;;;;14.91;32.60;94138.53;5006881;28;20521;-68
2022/01/20 05:42:06;;;;;;;195.50;158.25;;;;;;;14.91;32.64;94138.53;5008391;28;20161;-66
2022/01/20 05:44:32;;;;;;;194.07;158.90;;;;;;;14.90;32.49;94142.41;5006167;28;20104;-66
2022/01/20 05:46:57;;;;;;;189.52;154.32;;;;;;;14.93;32.58;94130.03;5004906;28;20856;-66
2022/01/20 05:49:23;;;;;;;198.05;159.43;;;;;;;14.94;32.62;94128.84;5005922;28;20037;-67
2022/01/20 05:51:52;;;;;;;195.68;159.32;;;;;;;14.95;32.51;94141.84;5010183;28;20057;-66
2022/01/20 05:54:19;;;;;;;195.60;158.63;;;;;;;14.96;32.46;94142.59;5008001;28;20741;-66
2022/01/20 05:56:45;;;;;;;196.60;158.68;;;;;;;14.99;32.39;94141.75;5008410;28;20057;-66
2022/01/20 05:59:12;;;;;;;194.05;157.65;;;;;;;15.00;32.69;94130.53;4994886;28;20117;-66
2022/01/20 06:01:38;;;;;;;194.45;156.93;;;;;;;14.98;32.50;94132.91;5012071;28;20041;-66
2022/01/20 06:04:09;;;;;;;194.07;157.90;;;;;;;15.00;32.83;94121.69;5009999;28;20041;-66
2022/01/20 06:06:36;;;;;;;194.15;158.27;;;;;;;15.00;32.56;94125.16;5008214;28;20450;-67
2022/01/20 06:09:06;;;;;;;196.00;159.27;;;;;;;15.02;32.37;94130.09;5004650;28;20135;-66
2022/01/20 06:11:32;;;;;;;190.95;154.50;;;;;;;15.00;32.73;94127.84;4994347;28;20157;-66
2022/01/20 06:13:58;;;;;;;192.60;155.85;;;;;;;15.00;32.42;94137.84;5008601;28;20057;-66
2022/01/20 06:16:23;;;;;;;194.52;158.55;;;;;;;15.01;32.44;94137.44;4995389;28;20052;-67
2022/01/20 06:18:49;;;;;;;190.68;154.30;;;;;;;15.02;32.51;94143.56;5008729;28;21112;-66
2022/01/20 06:21:15;;;;;;;198.73;162.13;;;;;;;15.02;32.48;94140.88;5007197;28;20049;-67
2022/01/20 06:23:40;;;;;;;196.75;160.52;;;;;;;15.03;32.50;94145.09;5008932;28;20049;-66
2022/01/20 06:26:06;;;;;;;204.98;167.20;;;;;;;15.03;32.32;94128.91;5010587;28;20037;-66
2022/01/20 06:28:33;;;;;;;192.65;156.60;;;;;;;15.05;32.38;94129.25;5007534;28;20177;-66
2022/01/20 06:30:58;;;;;;;191.73;156.75;;;;;;;15.05;32.41;94124.63;5006586;28;20070;-66
2022/01/20 06:33:24;;;;;;;194.07;158.98;;;;;;;15.05;32.08;94121.16;5008285;28;20526;-67
2022/01/20 06:35:49;;;;;;;193.63;158.07;;;;;;;15.05;32.46;94124.63;5006131;28;20075;-67
2022/01/20 06:38:15;;;;;;;193.95;158.45;;;;;;;15.06;32.40;94123.44;5009540;28;20535;-67
2022/01/20 06:40:41;;;;;;;190.90;157.05;;;;;;;15.07;32.33;94129.56;5008946;28;20460;-66
2022/01/20 06:43:07;;;;;;;199.00;162.65;;;;;;;15.06;32.34;94128.81;5011060;28;20140;-67
2022/01/20 06:45:32;;;;;;;192.90;156.73;;;;;;;15.06;32.56;94131.50;5010500;28;20045;-66
2022/01/20 06:47:58;;;;;;;184.32;151.00;;;;;;;15.07;32.58;94124.19;5005881;28;20628;-66
2022/01/20 06:50:25;;;;;;;192.25;156.27;;;;;;;15.07;32.51;94137.66;5007241;28;20375;-66
2022/01/20 06:52:51;;;;;;;190.40;156.25;;;;;;;15.05;32.44;94135.38;5009745;28;20470;-66
2022/01/20 06:55:17;;;;;;;193.57;157.48;;;;;;;15.06;32.58;94142.28;5008340;28;20513;-67
2022/01/20 06:57:43;;;;;;;193.55;158.77;;;;;;;15.08;32.40;94136.47;4995900;28;20061;-67
2022/01/20 07:00:16;;;;;;;199.23;161.73;;;;;;;15.09;32.54;94144.13;5005417;28;20139;-66
2022/01/20 07:02:43;;;;;;;195.15;160.18;;;;;;;15.09;32.45;94136.03;5004839;28;20072;-66
2022/01/20 07:05:12;;;;;;;194.57;158.18;;;;;;;15.08;32.49;94148.00;5009919;28;20046;-66
2022/01/20 07:07:37;;;;;;;194.48;160.50;;;;;;;15.09;32.51;94144.13;5004849;28;20383;-67
2022/01/20 07:10:03;;;;;;;192.10;157.20;;;;;;;15.10;32.43;94142.19;5006974;28;20058;-67
2022/01/20 07:12:28;;;;;;;193.57;157.98;;;;;;;15.12;32.46;94139.81;5006974;28;20065;-67
2022/01/20 07:14:54;;;;;;;193.32;159.88;;;;;;;15.10;32.67;94142.94;5005760;28;20312;-67
2022/01/20 07:17:19;;;;;;;198.02;161.38;;;;;;;15.11;32.54;94133.66;5007589;28;20130;-67
2022/01/20 07:19:45;;;;;;;191.85;156.05;;;;;;;15.10;32.57;94134.09;5008834;28;20052;-67
2022/01/20 07:22:11;;;;;;;193.73;159.65;;;;;;;15.09;32.61;94141.41;5007986;28;20479;-66
2022/01/20 07:24:37;;;;;;;192.52;157.55;;;;;;;15.10;32.55;94136.78;5006675;28;20148;-67
2022/01/20 07:27:04;;;;;;;191.35;155.35;;;;;;;15.11;32.43;94143.69;5008153;28;22142;-67
2022/01/20 07:29:31;;;;;;;195.07;160.90;;;;;;;15.11;32.48;94141.75;5006036;28;20038;-66
2022/01/20 07:31:58;;;;;;;191.10;155.48;;;;;;;15.13;32.49;94141.31;4997125;28;20057;-66
2022/01/20 07:34:24;;;;;;;190.05;155.38;;;;;;;15.10;32.54;94132.16;5009100;28;20061;-66
2022/01/20 07:36:49;;;;;;;196.18;161.02;;;;;;;15.12;32.50;94140.56;5008187;28;20434;-66
2022/01/20 07:39:15;;;;;;;191.98;157.10;;;;;;;15.13;32.60;94130.53;5009403;28;20144;-66
2022/01/20 07:41:40;;;;;;;195.65;159.90;;;;;;;15.15;32.80;94145.09;5011096;28;20136;-66
2022/01/20 07:44:06;;;;;;;192.48;159.18;;;;;;;15.13;32.62;94139.38;5004293;28;20414;-66
2022/01/20 07:46:31;;;;;;;192.98;156.38;;;;;;;15.13;32.56;94142.06;5007888;28;20064;-66
2022/01/20 07:48:57;;;;;;;192.07;157.25;;;;;;;15.12;32.51;94148.63;5008856;28;20046;-66
2022/01/20 07:51:23;;;;;;;194.73;158.65;;;;;;;15.16;32.76;94143.16;5005691;28;20054;-67
2022/01/20 07:53:48;;;;;;;194.15;160.25;;;;;;;15.14;32.99;94140.88;5006415;28;20579;-66
2022/01/20 07:56:14;;;;;;;197.02;162.38;;;;;;;15.16;32.70;94135.06;5007544;28;20441;-67
2022/01/20 07:58:39;;;;;;;192.43;156.00;;;;;;;15.14;32.61;94132.81;5009768;28;20049;-67
2022/01/20 08:01:06;;;;;;;192.50;158.55;;;;;;;15.15;32.60;94141.63;5010319;28;20183;-67
2022/01/20 08:03:32;;;;;;;197.10;160.88;;;;;;;15.15;32.61;94144.34;5010973;28;20088;-66
2022/01/20 08:05:57;;;;;;;205.25;169.63;;;;;;;15.15;32.58;94142.38;5009050;28;20132;-66
2022/01/20 08:08:22;;;;;;;190.95;156.65;;;;;;;15.18;32.69;94145.41;5010479;28;20084;-67
2022/01/20 08:10:48;;;;;;;192.27;158.05;;;;;;;15.19;32.61;94146.91;5009041;28;20168;-66
2022/01/20 08:13:14;;;;;;;198.80;164.65;;;;;;;15.17;32.83;94144.66;5010409;28;20453;-66
2022/01/20 08:15:39;;;;;;;193.23;158.73;;;;;;;15.15;32.70;94141.63;5008281;28;20513;-66
2022/01/20 08:18:07;;;;;;;189.98;156.25;;;;;;;15.15;32.66;94155.88;5013733;28;20045;-67
2022/01/20 08:20:33;;;;;;;193.48;158.73;;;;;;;15.17;32.63;94155.44;5011194;28;20060;-66
2022/01/20 08:22:59;;;;;;;191.65;157.95;;;;;;;15.14;32.57;94145.50;5013203;28;20144;-67
2022/01/20 08:25:26;;;;;;;195.63;160.45;;;;;;;15.11;32.82;94152.53;5009298;28;20119;-66
2022/01/20 08:27:52;;;;;;;194.18;159.35;;;;;;;15.11;32.71;94163.28;5009071;28;20053;-66
2022/01/20 08:30:20;;;;;;;193.27;158.38;;;;;;;15.06;32.58;94168.47;5007796;28;20049;-66
2022/01/20 08:32:47;;;;;;;192.93;158.85;;;;;;;15.03;32.55;94178.16;5011662;28;20049;-67
2022/01/20 08:35:12;;;;;;;196.57;162.93;;;;;;;15.04;32.71;94184.28;5009130;28;20072;-66
2022/01/20 08:37:43;;;;;;;190.48;155.68;;;;;;;15.02;32.60;94175.88;4997226;28;21128;-66
2022/01/20 08:40:13;;;;;;;193.30;158.75;;;;;;;15.02;32.62;94184.72;5007681;28;20065;-66
2022/01/20 08:42:40;;;;;;;190.82;156.15;;;;;;;15.04;32.61;94173.53;5010011;28;20505;-67
2022/01/20 08:45:08;;;;;;;191.85;154.52;;;;;;;15.01;32.39;94187.84;5009746;28;20038;-66
2022/01/20 08:47:33;;;;;;;193.38;158.77;;;;;;;14.96;32.57;94177.59;5005618;28;20049;-66
2022/01/20 08:49:59;;;;;;;193.70;158.40;;;;;;;14.99;32.68;94192.91;5008638;28;20086;-67
2022/01/20 08:52:28;;;;;;;197.43;159.93;;;;;;;14.97;32.57;94189.88;5008665;28;20073;-67
2022/01/20 08:54:56;;;;;;;190.95;154.77;;;;;;;14.95;32.52;94190.31;5005366;28;20046;-66
2022/01/20 08:57:22;;;;;;;193.77;157.25;;;;;;;14.95;32.31;94197.66;5010354;28;20437;-66
2022/01/20 08:59:47;;;;;;;195.15;158.57;;;;;;;14.95;32.52;94206.47;5006323;28;20129;-66
2022/01/20 09:02:13;;;;;;;192.15;157.82;;;;;;;14.97;32.48;94200.66;5006493;28;20050;-66
2022/01/20 09:04:39;;;;;;;191.73;156.13;;;;;;;14.97;32.30;94203.34;5008911;28;20050;-66
2022/01/20 09:07:05;;;;;;;197.43;160.43;;;;;;;14.96;32.33;94207.22;5007490;28;20127;-66
2022/01/20 09:09:39;;;;;;;190.75;155.88;;;;;;;14.91;32.45;94205.09;5012543;28;20049;-66
2022/01/20 09:12:18;;;;;;;188.25;152.10;;;;;;;14.95;32.31;94201.09;5008451;28;20461;-66
2022/01/20 09:17:31;;;;;;;201.40;162.05;;;;;;;15.00;32.06;94202.50;5009704;28;20049;-66
2022/01/20 09:19:58;;;;;;;195.90;160.40;;;;;;;14.97;32.35;94193.34;5010643;28;20045;-66
2022/01/20 09:22:26;;;;;;;191.35;155.93;;;;;;;15.00;32.41;94199.81;5010540;28;20430;-66
2022/01/20 09:24:51;;;;;;;191.23;155.88;;;;;;;15.02;32.44;94200.13;5009056;28;20045;-66
2022/01/20 09:27:17;;;;;;;198.48;162.40;;;;;;;14.96;32.49;94199.91;4998332;28;20060;-67
2022/01/20 09:29:45;;;;;;;187.48;151.20;;;;;;;14.96;32.28;94202.59;5007483;28;20037;-66
2022/01/20 09:32:12;;;;;;;193.00;156.55;;;;;;;14.93;32.35;94197.34;5008996;28;20192;-66
2022/01/20 09:34:39;;;;;;;195.63;160.20;;;;;;;14.94;32.37;94204.25;5009559;28;20061;-66
2022/01/20 09:37:05;;;;;;;194.48;159.05;;;;;;;14.95;32.28;94208.44;5006522;28;20050;-66
2022/01/20 09:39:30;;;;;;;194.52;156.48;;;;;;;14.93;32.30;94206.19;4989236;28;20069;-67
2022/01/20 09:41:58;;;;;;;187.13;152.38;;;;;;;14.92;32.22;94226.22;5008067;28;20075;-67
2022/01/20 09:44:25;;;;;;;189.90;154.90;;;;;;;14.91;32.25;94213.94;5006772;28;20049;-66
2022/01/20 09:46:50;;;;;;;190.93;154.15;;;;;;;14.92;32.29;94225.44;5010495;28;20481;-66
2022/01/20 09:49:16;;;;;;;193.35;157.77;;;;;;;14.90;32.32;94238.59;5006847;28;20042;-66
2022/01/20 09:51:42;;;;;;;193.30;156.95;;;;;;;14.86;32.54;94246.00;5006750;28;20111;-66
2022/01/20 09:54:08;;;;;;;195.70;160.48;;;;;;;14.87;32.53;94244.81;5005331;28;20037;-66
2022/01/20 09:56:36;;;;;;;192.13;156.18;;;;;;;14.89;32.37;94255.94;5007194;28;20143;-67
2022/01/20 09:59:02;;;;;;;192.57;156.45;;;;;;;14.88;32.33;94257.09;5007885;28;20366;-67
2022/01/20 10:01:44;;;;;;;194.73;160.20;;;;;;;14.88;32.55;94251.72;5009278;28;20454;-66
2022/01/20 10:04:22;;;;;;;194.23;157.68;;;;;;;14.86;32.49;94251.41;5006058;28;20056;-66
2022/01/20 10:07:00;;;;;;;197.13;160.02;;;;;;;14.90;32.52;94258.19;5008232;28;20046;-67
2022/01/20 10:09:28;;;;;;;190.27;155.15;;;;;;;14.92;32.35;94250.44;5007508;28;20406;-67
2022/01/20 10:11:54;;;;;;;194.70;158.93;;;;;;;14.83;32.50;94256.44;5006825;28;20042;-66
2022/01/20 10:14:19;;;;;;;195.95;160.00;;;;;;;14.88;32.54;94263.25;5005096;28;20484;-66
2022/01/20 10:16:45;;;;;;;188.98;154.13;;;;;;;14.90;32.60;94263.56;5007180;28;20557;-67
2022/01/20 10:19:22;;;;;;;208.52;168.95;;;;;;;14.89;32.48;94267.44;5005952;28;20091;-67
2022/01/20 10:21:48;;;;;;;195.55;158.13;;;;;;;14.90;32.65;94243.97;5004413;28;20053;-67
2022/01/20 10:24:16;;;;;;;194.93;159.07;;;;;;;14.91;32.63;94248.19;5011201;28;20099;-66
2022/01/20 10:26:42;;;;;;;194.02;158.13;;;;;;;14.93;32.43;94257.34;5009182;28;20626;-67
2022/01/20 10:29:14;;;;;;;196.13;159.88;;;;;;;14.91;32.56;94253.56;5008619;28;20289;-66
2022/01/20 10:31:49;;;;;;;195.20;159.98;;;;;;;14.92;32.50;94250.44;5009675;28;20042;-66
2022/01/20 10:34:30;;;;;;;192.05;157.35;;;;;;;14.90;32.32;94242.03;5008774;28;20068;-66
2022/01/20 10:37:15;;;;;;;189.10;152.50;;;;;;;14.87;32.62;94242.13;4993497;28;20065;-67
2022/01/20 10:39:44;;;;;;;188.35;152.63;;;;;;;14.80;32.70;94240.41;5010986;28;20038;-66
2022/01/20 10:42:12;;;;;;;193.48;157.70;;;;;;;14.82;32.68;94238.78;5008255;28;20052;-67
2022/01/20 10:44:46;;;;;;;192.48;156.68;;;;;;;14.89;32.70;94235.13;5005116;28;20053;-66
2022/01/20 10:47:16;;;;;;;194.93;158.77;;;;;;;14.92;32.68;94231.59;5005150;28;20042;-66
2022/01/20 10:49:43;;;;;;;195.93;159.63;;;;;;;14.92;32.66;94214.69;5006791;28;20407;-66
2022/01/20 10:52:11;;;;;;;191.73;158.02;;;;;;;14.92;32.65;94214.69;5008361;28;20482;-66
2022/01/20 10:54:40;;;;;;;194.60;157.70;;;;;;;14.92;32.53;94209.28;5008437;28;20060;-66
2022/01/20 10:57:10;;;;;;;194.52;158.80;;;;;;;14.92;32.73;94222.75;5005865;28;20061;-67
2022/01/20 10:59:52;;;;;;;192.80;157.23;;;;;;;14.91;32.57;94227.38;5006915;28;20048;-67
2022/01/20 11:02:25;;;;;;;186.75;150.10;;;;;;;14.95;32.64;94224.59;5010282;28;20376;-67
2022/01/20 11:04:51;;;;;;;190.70;155.60;;;;;;;14.96;32.62;94229.53;5008005;28;20391;-67
2022/01/20 11:07:16;;;;;;;192.65;156.85;;;;;;;14.96;32.42;94232.22;5009849;28;20159;-67
2022/01/20 11:09:44;;;;;;;190.23;155.23;;;;;;;14.96;32.64;94236.84;5007787;28;20045;-67
2022/01/20 11:12:19;;;;;;;196.57;160.93;;;;;;;14.97;32.64;94239.13;5007993;28;20458;-66
2022/01/20 11:14:47;;;;;;;194.73;158.98;;;;;;;14.95;32.69;94240.75;5003983;28;20359;-66
2022/01/20 11:17:21;;;;;;;195.98;160.02;;;;;;;14.93;32.75;94241.19;5010963;28;20045;-67
2022/01/20 11:19:46;;;;;;;191.55;154.90;;;;;;;14.91;32.78;94240.09;5007393;28;20053;-67
2022/01/20 11:22:13;;;;;;;192.23;157.25;;;;;;;14.81;32.87;94236.53;5004911;28;20049;-67
2022/01/20 11:24:41;;;;;;;185.45;150.95;;;;;;;14.76;32.99;94243.19;4995844;28;20057;-67
2022/01/20 11:27:13;;;;;;;199.05;162.15;;;;;;;14.83;33.01;94234.91;5005787;28;20049;-66
2022/01/20 11:29:47;;;;;;;193.98;158.38;;;;;;;14.76;32.92;94232.41;5005068;28;20234;-66
2022/01/20 11:32:21;;;;;;;195.55;157.52;;;;;;;14.67;33.26;94251.13;5009388;28;20064;-67
2022/01/20 11:34:58;;;;;;;193.25;156.57;;;;;;;14.71;33.06;94241.00;5009098;28;20038;-66
2022/01/20 11:37:30;;;;;;;193.45;157.35;;;;;;;14.74;33.04;94234.78;5011409;28;20406;-67
2022/01/20 11:40:17;;;;;;;192.85;155.38;;;;;;;14.79;32.84;94233.50;5012987;28;20509;-66
2022/01/20 11:43:10;;;;;;;195.57;157.43;;;;;;;14.79;32.88;94222.72;5009838;28;20436;-67
2022/01/20 11:45:38;;;;;;;194.90;156.27;;;;;;;14.76;32.99;94216.25;5011606;28;20107;-66
2022/01/20 11:48:16;;;;;;;192.15;154.68;;;;;;;14.59;33.13;94212.13;5011948;28;20136;-66
2022/01/20 11:50:43;;;;;;;192.73;155.20;;;;;;;14.57;33.52;94202.97;5011033;28;20050;-66
2022/01/20 11:53:18;;;;;;;196.95;159.07;;;;;;;14.72;33.08;94193.31;5009799;28;20073;-66
2022/01/20 11:55:55;;;;;;;187.32;152.30;;;;;;;14.83;32.92;94201.84;5008180;28;20037;-66
2022/01/20 11:58:23;;;;;;;191.45;155.15;;;;;;;14.88;32.84;94200.56;4999584;28;21365;-67
2022/01/20 12:01:08;;;;;;;193.23;155.23;;;;;;;14.92;32.85;94203.91;5010377;28;20057;-66
2022/01/20 12:03:36;;;;;;;195.23;156.40;;;;;;;14.92;32.58;94207.34;5007529;28;20548;-67
2022/01/20 12:06:13;;;;;;;207.23;166.07;;;;;;;14.97;32.46;94209.50;4993251;28;20514;-66
2022/01/20 12:09:00;;;;;;;195.10;159.25;;;;;;;14.97;32.77;94214.13;4994002;28;20045;-67
2022/01/20 12:11:49;;;;;;;196.82;160.65;;;;;;;14.89;32.79;94192.06;5009955;28;20450;-66